Flight Track Log - Related Links

Times and Time Zones

All times are in EDT time to prevent confusion due to time zone crossing. See the CCA1581 flight status page for this flight to view local times or setup timezone preferences in your user account.

Time Position Orientation Groundspeed Altitude Reporting Facility
EDT Latitude Longitude Course Direction KTS MPH feet Rate Location/Type
Mon 07:33:00 AM 39.7596 116.5621 183° South  Level Estimated
Mon 07:34:00 AM 39.6528 116.5547 183° South  Level Estimated
Mon 07:35:00 AM 39.5460 116.5473 183° South  Level Estimated
Mon 07:36:00 AM 39.4391 116.5399 183° South  Level Estimated
Mon 07:37:00 AM 39.3323 116.5325 183° South  Level Estimated
Mon 07:38:00 AM 39.2254 116.5252 183° South  Level Estimated
Mon 07:39:00 AM 39.1186 116.5179 183° South  Level Estimated
Mon 07:40:00 AM 39.0118 116.5106 183° South  Level Estimated
Mon 07:41:00 AM 38.9049 116.5033 183° South  Level Estimated
Mon 07:42:00 AM 38.7981 116.4960 183° South  Level Estimated
Mon 07:43:00 AM 38.6912 116.4888 183° South  Level Estimated
Mon 07:44:00 AM 38.5844 116.4816 183° South  Level Estimated
Mon 07:45:00 AM 38.4776 116.4744 183° South  Level Estimated
Mon 07:46:00 AM 38.3707 116.4672 183° South  Level Estimated
Mon 07:47:00 AM 38.2639 116.4601 183° South  Level Estimated
Mon 07:48:00 AM 38.1570 116.4530 183° South  Level Estimated
Mon 07:49:00 AM 38.0502 116.4459 183° South  Level Estimated
Mon 07:50:00 AM 37.9434 116.4388 183° South  Level Estimated
Mon 07:51:00 AM 37.8365 116.4317 183° South  Level Estimated
Mon 07:52:00 AM 37.7297 116.4247 183° South  Level Estimated
Mon 07:53:00 AM 37.6228 116.4177 183° South  Level Estimated
Mon 07:54:00 AM 37.5160 116.4107 183° South  Level Estimated
Mon 07:55:00 AM 37.4092 116.4037 183° South  Level Estimated
Mon 07:56:00 AM 37.3023 116.3968 183° South  Level Estimated
Mon 07:57:00 AM 37.1955 116.3898 183° South  Level Estimated
Mon 07:58:00 AM 37.0886 116.3829 183° South  Level Estimated
Mon 07:59:00 AM 36.9818 116.3760 183° South  Level Estimated
Mon 08:00:00 AM 36.8750 116.3691 183° South  Level Estimated
Mon 08:01:00 AM 36.7681 116.3623 183° South  Level Estimated
Mon 08:02:00 AM 36.6613 116.3554 183° South  Level Estimated
Mon 08:03:00 AM 36.5544 116.3486 183° South  Level Estimated
Mon 08:04:00 AM 36.4476 116.3418 183° South  Level Estimated
Mon 08:05:00 AM 36.3407 116.3350 183° South  Level Estimated
Mon 08:06:00 AM 36.2338 116.3282 183° South  Level Estimated
Mon 08:07:00 AM 36.1270 116.3214 183° South  Level Estimated
Mon 08:08:00 AM 36.0201 116.3147 183° South  Level Estimated
Mon 08:09:00 AM 35.9133 116.3080 183° South  Level Estimated
Mon 08:10:00 AM 35.8064 116.3013 183° South  Level Estimated
Mon 08:11:00 AM 35.6996 116.2946 183° South  Level Estimated
Mon 08:12:00 AM 35.5928 116.2880 183° South  Level Estimated
Mon 08:13:00 AM 35.4859 116.2813 183° South  Level Estimated
Mon 08:14:00 AM 35.3791 116.2747 183° South  Level Estimated
Mon 08:15:00 AM 35.2722 116.2681 183° South  Level Estimated
Mon 08:16:00 AM 35.1654 116.2615 183° South  Level Estimated
Mon 08:17:00 AM 35.0585 116.2549 183° South  Level Estimated
Mon 08:18:00 AM 34.9516 116.2484 183° South  Level Estimated
Mon 08:19:00 AM 34.8448 116.2418 183° South  Level Estimated
Mon 08:20:00 AM 34.7379 116.2353 183° South  Level Estimated
Mon 08:21:00 AM 34.6311 116.2288 183° South  Level Estimated
Mon 08:22:00 AM 34.5243 116.2223 183° South  Level Estimated
Mon 08:23:00 AM 34.4174 116.2159 183° South  Level Estimated
Mon 08:24:00 AM 34.3106 116.2094 183° South  Level Estimated
Mon 08:25:00 AM 34.2037 116.2029 183° South  Level Estimated
Mon 08:26:00 AM 34.0969 116.1965 183° South  Level Estimated
Mon 08:27:00 AM 33.9900 116.1901 183° South  Level Estimated
Mon 08:28:00 AM 33.8831 116.1837 183° South  Level Estimated
Mon 08:29:00 AM 33.7763 116.1774 183° South  Level Estimated
Mon 08:30:00 AM 33.6694 116.1710 183° South  Level Estimated
Mon 08:31:00 AM 33.5625 116.1647 183° South  Level Estimated
Mon 08:32:00 AM 33.4557 116.1583 183° South  Level Estimated
Mon 08:33:00 AM 33.3488 116.1520 183° South  Level Estimated
Mon 08:34:00 AM 33.2420 116.1457 183° South  Level Estimated
Mon 08:35:00 AM 33.1351 116.1394 183° South  Level Estimated
Mon 08:36:00 AM 33.0283 116.1332 183° South  Level Estimated
Mon 08:37:00 AM 32.9214 116.1269 183° South  Level Estimated
Mon 08:38:00 AM 32.8145 116.1207 183° South  Level Estimated
Mon 08:39:00 AM 32.7077 116.1145 183° South  Level Estimated
Mon 08:40:00 AM 32.6008 116.1083 183° South  Level Estimated
Mon 08:41:00 AM 32.4939 116.1021 183° South  Level Estimated
Mon 08:42:00 AM 32.3871 116.0959 183° South  Level Estimated
Mon 08:43:00 AM 32.2802 116.0897 183° South  Level Estimated
Mon 08:44:00 AM 32.1734 116.0836 183° South  Level Estimated
Mon 08:45:00 AM 32.0665 116.0775 183° South  Level Estimated
Mon 08:46:00 AM 31.9597 116.0713 183° South  Level Estimated
Mon 08:47:00 AM 31.8528 116.0652 183° South  Level Estimated
Mon 08:48:00 AM 31.7459 116.0592 183° South  Level Estimated
Mon 08:49:00 AM 31.6391 116.0531 183° South  Level Estimated
Mon 08:50:00 AM 31.5322 116.0470 183° South  Level Estimated
Mon 08:51:00 AM 31.4254 116.0410 183° South  Level Estimated
Mon 08:52:00 AM 31.3185 116.0349 183° South  Level Estimated
Mon 08:53:00 AM 31.2116 116.0289 183° South  Level Estimated
Mon 08:54:00 AM 31.1048 116.0229 183° South  Level Estimated
Mon 08:55:00 AM 30.9979 116.0169 183° South  Level Estimated
Mon 08:56:00 AM 30.8911 116.0109 183° South  Level Estimated
Mon 08:57:00 AM 30.7842 116.0050 183° South  Level Estimated
Mon 08:58:00 AM 30.6773 115.9990 183° South  Level Estimated
Mon 08:59:00 AM 30.5705 115.9931 183° South  Level Estimated
Mon 09:00:00 AM 30.4636 115.9871 183° South  Level Estimated
Mon 09:01:00 AM 30.3567 115.9812 183° South  Level Estimated
Mon 09:02:00 AM 30.2499 115.9753 183° South  Level Estimated
Mon 09:03:00 AM 30.1430 115.9694 183° South  Level Estimated
Mon 09:04:00 AM 30.0361 115.9636 183° South  Level Estimated
Mon 09:05:00 AM 29.9293 115.9577 183° South  Level Estimated
Mon 09:06:00 AM 29.8224 115.9519 183° South  Level Estimated
Mon 09:07:00 AM 29.7155 115.9460 183° South  Level Estimated
Mon 09:08:00 AM 29.6087 115.9402 183° South  Level Estimated
Mon 09:09:00 AM 29.5018 115.9344 183° South  Level Estimated
Mon 09:10:00 AM 29.3949 115.9286 183° South  Level Estimated
Mon 09:11:00 AM 29.2880 115.9228 183° South  Level Estimated
Mon 09:12:00 AM 29.1812 115.9170 183° South  Level Estimated
Mon 09:13:00 AM 29.0743 115.9113 183° South  Level Estimated
Mon 09:14:00 AM 28.9674 115.9055 183° South  Level Estimated
Mon 09:15:00 AM 28.8650 115.9000 183° South  Level Estimated
Mon 09:16:00 AM 28.8650 115.9000 North  Level Estimated
Mon 09:17:00 AM 28.8650 115.9000 North  Level Estimated
Mon 09:18:00 AM 28.8650 115.9000 North  Level Estimated
Mon 09:19:00 AM 28.8650 115.9000 North  Level Estimated
Mon 09:20:00 AM 28.8650 115.9000 North  Level Estimated

Login

Don't have an account? Register now (free) for customized features, flight alerts, and more!